sensor_id;sensor_type;location;lat;lon;timestamp;pressure;altitude;pressure_sealevel;temperature;humidity
64668;BME280;51077;42.716;23.344;2022-08-01T00:00:39;95259.69;;;20.82;52.84
64668;BME280;51077;42.716;23.344;2022-08-01T00:03:05;95257.91;;;20.77;52.93
64668;BME280;51077;42.716;23.344;2022-08-01T00:05:31;95259.66;;;20.73;52.87
64668;BME280;51077;42.716;23.344;2022-08-01T00:07:56;95265.47;;;20.67;53.19
64668;BME280;51077;42.716;23.344;2022-08-01T00:10:21;95265.75;;;20.62;53.25
64668;BME280;51077;42.716;23.344;2022-08-01T00:12:47;95262.50;;;20.55;53.71
64668;BME280;51077;42.716;23.344;2022-08-01T00:15:15;95260.69;;;20.50;53.47
64668;BME280;51077;42.716;23.344;2022-08-01T00:17:40;95258.00;;;20.43;53.91
64668;BME280;51077;42.716;23.344;2022-08-01T00:20:08;95265.88;;;20.37;54.02
64668;BME280;51077;42.716;23.344;2022-08-01T00:22:34;95269.66;;;20.31;54.15
64668;BME280;51077;42.716;23.344;2022-08-01T00:25:00;95270.06;;;20.28;54.12
64668;BME280;51077;42.716;23.344;2022-08-01T00:27:26;95274.59;;;20.23;54.28
64668;BME280;51077;42.716;23.344;2022-08-01T00:29:52;95273.53;;;20.19;54.49
64668;BME280;51077;42.716;23.344;2022-08-01T00:32:17;95271.91;;;20.16;54.52
64668;BME280;51077;42.716;23.344;2022-08-01T00:34:43;95273.78;;;20.13;54.40
64668;BME280;51077;42.716;23.344;2022-08-01T00:37:08;95270.84;;;20.11;54.41
64668;BME280;51077;42.716;23.344;2022-08-01T00:39:34;95267.16;;;20.08;54.42
64668;BME280;51077;42.716;23.344;2022-08-01T00:42:00;95267.00;;;20.06;54.47
64668;BME280;51077;42.716;23.344;2022-08-01T00:44:26;95266.09;;;20.04;54.54
64668;BME280;51077;42.716;23.344;2022-08-01T00:46:52;95263.88;;;20.02;54.50
64668;BME280;51077;42.716;23.344;2022-08-01T00:49:17;95255.38;;;20.00;54.68
64668;BME280;51077;42.716;23.344;2022-08-01T00:51:43;95257.25;;;19.98;54.58
64668;BME280;51077;42.716;23.344;2022-08-01T00:54:08;95264.13;;;19.97;54.80
64668;BME280;51077;42.716;23.344;2022-08-01T00:56:34;95252.13;;;19.94;54.77
64668;BME280;51077;42.716;23.344;2022-08-01T00:58:59;95249.16;;;19.92;54.67
64668;BME280;51077;42.716;23.344;2022-08-01T01:01:25;95239.16;;;19.89;54.87
64668;BME280;51077;42.716;23.344;2022-08-01T01:03:51;95241.78;;;19.87;55.04
64668;BME280;51077;42.716;23.344;2022-08-01T01:16:58;95236.38;;;19.72;54.88
64668;BME280;51077;42.716;23.344;2022-08-01T01:19:30;95236.22;;;19.70;54.76
64668;BME280;51077;42.716;23.344;2022-08-01T01:27:36;95224.78;;;19.66;54.84
64668;BME280;51077;42.716;23.344;2022-08-01T01:30:04;95221.25;;;19.65;54.73
64668;BME280;51077;42.716;23.344;2022-08-01T01:32:43;95224.63;;;19.64;54.74
64668;BME280;51077;42.716;23.344;2022-08-01T01:35:15;95222.38;;;19.62;54.77
64668;BME280;51077;42.716;23.344;2022-08-01T01:37:42;95215.91;;;19.59;54.76
64668;BME280;51077;42.716;23.344;2022-08-01T01:40:10;95217.19;;;19.58;55.02
64668;BME280;51077;42.716;23.344;2022-08-01T01:42:36;95221.31;;;19.57;54.92
64668;BME280;51077;42.716;23.344;2022-08-01T01:45:04;95219.09;;;19.56;54.99
64668;BME280;51077;42.716;23.344;2022-08-01T01:47:31;95212.78;;;19.55;55.08
64668;BME280;51077;42.716;23.344;2022-08-01T01:49:59;95204.25;;;19.53;55.35
64668;BME280;51077;42.716;23.344;2022-08-01T01:52:26;95211.88;;;19.53;55.28
64668;BME280;51077;42.716;23.344;2022-08-01T01:54:52;95208.22;;;19.50;55.61
64668;BME280;51077;42.716;23.344;2022-08-01T01:57:19;95212.13;;;19.47;55.42
64668;BME280;51077;42.716;23.344;2022-08-01T01:59:46;95202.88;;;19.45;55.51
64668;BME280;51077;42.716;23.344;2022-08-01T02:02:13;95211.06;;;19.43;55.53
64668;BME280;51077;42.716;23.344;2022-08-01T02:04:44;95201.81;;;19.40;55.80
64668;BME280;51077;42.716;23.344;2022-08-01T02:07:13;95206.66;;;19.40;55.52
64668;BME280;51077;42.716;23.344;2022-08-01T02:09:41;95200.16;;;19.37;55.62
64668;BME280;51077;42.716;23.344;2022-08-01T02:12:10;95201.47;;;19.36;55.76
64668;BME280;51077;42.716;23.344;2022-08-01T02:14:37;95208.22;;;19.33;55.85
64668;BME280;51077;42.716;23.344;2022-08-01T02:17:05;95197.63;;;19.31;55.77
64668;BME280;51077;42.716;23.344;2022-08-01T02:19:33;95202.31;;;19.29;55.74
64668;BME280;51077;42.716;23.344;2022-08-01T02:22:18;95209.75;;;19.26;55.93
64668;BME280;51077;42.716;23.344;2022-08-01T02:24:55;95203.28;;;19.24;56.14
64668;BME280;51077;42.716;23.344;2022-08-01T02:27:45;95200.16;;;19.20;56.28
64668;BME280;51077;42.716;23.344;2022-08-01T02:30:13;95207.63;;;19.17;56.31
64668;BME280;51077;42.716;23.344;2022-08-01T02:32:47;95200.25;;;19.12;56.16
64668;BME280;51077;42.716;23.344;2022-08-01T02:35:21;95208.41;;;19.10;56.17
64668;BME280;51077;42.716;23.344;2022-08-01T02:37:48;95202.69;;;19.08;56.05
64668;BME280;51077;42.716;23.344;2022-08-01T02:40:16;95199.59;;;19.04;55.80
64668;BME280;51077;42.716;23.344;2022-08-01T02:42:45;95205.53;;;19.00;55.90
64668;BME280;51077;42.716;23.344;2022-08-01T02:45:12;95201.09;;;18.97;55.69
64668;BME280;51077;42.716;23.344;2022-08-01T02:47:40;95209.28;;;18.95;55.50
64668;BME280;51077;42.716;23.344;2022-08-01T02:50:10;95204.88;;;18.92;55.54
64668;BME280;51077;42.716;23.344;2022-08-01T02:52:38;95204.53;;;18.88;55.38
64668;BME280;51077;42.716;23.344;2022-08-01T02:55:05;95199.53;;;18.87;55.29
64668;BME280;51077;42.716;23.344;2022-08-01T02:57:32;95204.19;;;18.84;55.38
64668;BME280;51077;42.716;23.344;2022-08-01T02:59:59;95197.00;;;18.81;55.69
64668;BME280;51077;42.716;23.344;2022-08-01T03:02:26;95197.41;;;18.77;55.53
64668;BME280;51077;42.716;23.344;2022-08-01T03:04:52;95200.56;;;18.74;55.69
64668;BME280;51077;42.716;23.344;2022-08-01T03:07:19;95203.16;;;18.72;55.73
64668;BME280;51077;42.716;23.344;2022-08-01T03:09:47;95205.78;;;18.70;56.00
64668;BME280;51077;42.716;23.344;2022-08-01T03:12:25;95201.53;;;18.69;55.79
64668;BME280;51077;42.716;23.344;2022-08-01T03:14:54;95200.06;;;18.68;55.92
64668;BME280;51077;42.716;23.344;2022-08-01T03:17:22;95198.56;;;18.67;56.00
64668;BME280;51077;42.716;23.344;2022-08-01T03:19:50;95199.13;;;18.65;56.03
64668;BME280;51077;42.716;23.344;2022-08-01T03:22:18;95198.94;;;18.63;55.91
64668;BME280;51077;42.716;23.344;2022-08-01T03:24:47;95200.84;;;18.61;55.93
64668;BME280;51077;42.716;23.344;2022-08-01T03:27:14;95200.09;;;18.60;55.78
64668;BME280;51077;42.716;23.344;2022-08-01T03:29:41;95205.66;;;18.60;55.79
64668;BME280;51077;42.716;23.344;2022-08-01T03:32:10;95205.09;;;18.62;55.73
64668;BME280;51077;42.716;23.344;2022-08-01T03:34:36;95206.75;;;18.65;55.58
64668;BME280;51077;42.716;23.344;2022-08-01T03:37:07;95194.50;;;18.68;55.65
64668;BME280;51077;42.716;23.344;2022-08-01T03:39:44;95208.19;;;18.73;55.72
64668;BME280;51077;42.716;23.344;2022-08-01T03:42:15;95200.91;;;18.78;55.59
64668;BME280;51077;42.716;23.344;2022-08-01T03:44:52;95212.38;;;18.82;55.56
64668;BME280;51077;42.716;23.344;2022-08-01T03:47:22;95210.50;;;18.84;55.62
64668;BME280;51077;42.716;23.344;2022-08-01T03:49:50;95211.56;;;18.89;55.53
64668;BME280;51077;42.716;23.344;2022-08-01T03:52:18;95216.72;;;18.93;55.38
64668;BME280;51077;42.716;23.344;2022-08-01T03:54:47;95226.72;;;18.96;55.27
64668;BME280;51077;42.716;23.344;2022-08-01T03:57:15;95216.50;;;18.98;55.11
64668;BME280;51077;42.716;23.344;2022-08-01T03:59:42;95215.34;;;19.01;54.78
64668;BME280;51077;42.716;23.344;2022-08-01T04:02:08;95210.31;;;19.07;54.68
64668;BME280;51077;42.716;23.344;2022-08-01T04:04:34;95219.00;;;19.12;54.58
64668;BME280;51077;42.716;23.344;2022-08-01T04:07:01;95215.78;;;19.15;54.54
64668;BME280;51077;42.716;23.344;2022-08-01T04:09:31;95212.78;;;19.21;54.30
64668;BME280;51077;42.716;23.344;2022-08-01T04:12:00;95217.38;;;19.26;54.16
64668;BME280;51077;42.716;23.344;2022-08-01T04:14:27;95221.94;;;19.31;53.93
64668;BME280;51077;42.716;23.344;2022-08-01T04:16:53;95225.22;;;19.37;53.94
64668;BME280;51077;42.716;23.344;2022-08-01T04:56:23;95228.31;;;20.55;51.05
64668;BME280;51077;42.716;23.344;2022-08-01T04:58:48;95230.41;;;20.64;50.80
64668;BME280;51077;42.716;23.344;2022-08-01T05:01:34;95219.28;;;20.74;50.54
64668;BME280;51077;42.716;23.344;2022-08-01T05:04:00;95218.44;;;20.81;50.49
64668;BME280;51077;42.716;23.344;2022-08-01T05:06:25;95211.41;;;20.90;50.08
64668;BME280;51077;42.716;23.344;2022-08-01T05:08:50;95203.78;;;21.00;50.02
64668;BME280;51077;42.716;23.344;2022-08-01T05:11:16;95210.28;;;21.12;49.72
64668;BME280;51077;42.716;23.344;2022-08-01T05:13:41;95201.63;;;21.18;49.37
64668;BME280;51077;42.716;23.344;2022-08-01T05:16:06;95200.78;;;21.25;49.25
64668;BME280;51077;42.716;23.344;2022-08-01T05:18:32;95204.31;;;21.35;49.16
64668;BME280;51077;42.716;23.344;2022-08-01T05:20:57;95198.44;;;21.41;49.11
64668;BME280;51077;42.716;23.344;2022-08-01T05:23:23;95202.13;;;21.53;48.62
64668;BME280;51077;42.716;23.344;2022-08-01T05:25:48;95199.34;;;21.63;48.60
64668;BME280;51077;42.716;23.344;2022-08-01T05:28:14;95202.13;;;21.72;48.55
64668;BME280;51077;42.716;23.344;2022-08-01T05:30:40;95210.53;;;21.82;48.06
64668;BME280;51077;42.716;23.344;2022-08-01T05:33:06;95200.06;;;21.92;47.39
64668;BME280;51077;42.716;23.344;2022-08-01T05:35:31;95207.13;;;22.03;47.24
64668;BME280;51077;42.716;23.344;2022-08-01T05:37:56;95203.72;;;22.14;46.96
64668;BME280;51077;42.716;23.344;2022-08-01T05:40:22;95205.94;;;22.25;46.68
64668;BME280;51077;42.716;23.344;2022-08-01T05:42:47;95213.09;;;22.38;46.19
64668;BME280;51077;42.716;23.344;2022-08-01T05:45:12;95203.34;;;22.49;45.74
64668;BME280;51077;42.716;23.344;2022-08-01T05:47:38;95205.53;;;22.60;45.47
64668;BME280;51077;42.716;23.344;2022-08-01T05:50:04;95203.41;;;22.70;45.06
64668;BME280;51077;42.716;23.344;2022-08-01T05:52:29;95206.16;;;22.80;44.37
64668;BME280;51077;42.716;23.344;2022-08-01T05:54:56;95204.09;;;22.90;44.32
64668;BME280;51077;42.716;23.344;2022-08-01T05:57:21;95214.63;;;23.01;44.07
64668;BME280;51077;42.716;23.344;2022-08-01T05:59:47;95218.72;;;23.10;43.75
64668;BME280;51077;42.716;23.344;2022-08-01T06:02:12;95218.66;;;23.20;43.63
64668;BME280;51077;42.716;23.344;2022-08-01T06:04:37;95219.94;;;23.28;43.35
64668;BME280;51077;42.716;23.344;2022-08-01T06:07:03;95219.00;;;23.36;42.74
64668;BME280;51077;42.716;23.344;2022-08-01T06:09:28;95202.00;;;23.43;42.63
64668;BME280;51077;42.716;23.344;2022-08-01T06:11:55;95204.13;;;23.54;42.62
64668;BME280;51077;42.716;23.344;2022-08-01T06:14:21;95201.84;;;23.63;41.90
64668;BME280;51077;42.716;23.344;2022-08-01T06:16:46;95208.63;;;23.69;41.75
64668;BME280;51077;42.716;23.344;2022-08-01T06:19:12;95212.69;;;23.78;41.40
64668;BME280;51077;42.716;23.344;2022-08-01T06:21:37;95208.94;;;23.85;41.28
64668;BME280;51077;42.716;23.344;2022-08-01T06:24:03;95214.31;;;23.93;40.97
64668;BME280;51077;42.716;23.344;2022-08-01T06:26:29;95206.44;;;24.01;40.88
64668;BME280;51077;42.716;23.344;2022-08-01T06:28:54;95206.22;;;24.08;40.79
64668;BME280;51077;42.716;23.344;2022-08-01T06:31:19;95208.06;;;24.16;40.81
64668;BME280;51077;42.716;23.344;2022-08-01T06:33:45;95209.91;;;24.23;40.58
64668;BME280;51077;42.716;23.344;2022-08-01T06:36:10;95202.00;;;24.31;40.15
64668;BME280;51077;42.716;23.344;2022-08-01T06:38:35;95201.19;;;24.40;40.02
64668;BME280;51077;42.716;23.344;2022-08-01T06:41:02;95195.47;;;24.50;39.91
64668;BME280;51077;42.716;23.344;2022-08-01T06:43:27;95194.03;;;24.61;39.81
64668;BME280;51077;42.716;23.344;2022-08-01T06:45:53;95189.03;;;24.71;39.43
64668;BME280;51077;42.716;23.344;2022-08-01T06:48:18;95186.72;;;24.79;39.10
64668;BME280;51077;42.716;23.344;2022-08-01T06:50:44;95179.75;;;24.92;39.07
64668;BME280;51077;42.716;23.344;2022-08-01T06:53:09;95180.25;;;25.00;38.72
64668;BME280;51077;42.716;23.344;2022-08-01T06:55:35;95184.41;;;25.11;38.52
64668;BME280;51077;42.716;23.344;2022-08-01T06:58:00;95173.78;;;25.21;38.13
64668;BME280;51077;42.716;23.344;2022-08-01T07:00:26;95173.63;;;25.30;38.14
64668;BME280;51077;42.716;23.344;2022-08-01T07:02:57;95174.94;;;25.41;37.31
64668;BME280;51077;42.716;23.344;2022-08-01T07:05:23;95169.28;;;25.53;37.06
64668;BME280;51077;42.716;23.344;2022-08-01T07:07:49;95165.69;;;25.64;36.86
64668;BME280;51077;42.716;23.344;2022-08-01T07:10:15;95165.81;;;25.78;36.87
64668;BME280;51077;42.716;23.344;2022-08-01T07:12:41;95169.28;;;25.90;36.09
64668;BME280;51077;42.716;23.344;2022-08-01T07:15:10;95160.91;;;26.04;35.86
64668;BME280;51077;42.716;23.344;2022-08-01T07:17:40;95181.25;;;26.16;35.56
64668;BME280;51077;42.716;23.344;2022-08-01T07:20:08;95177.66;;;26.27;35.47
64668;BME280;51077;42.716;23.344;2022-08-01T07:22:34;95178.31;;;26.40;34.67
64668;BME280;51077;42.716;23.344;2022-08-01T07:24:59;95176.91;;;26.52;34.90
64668;BME280;51077;42.716;23.344;2022-08-01T07:27:25;95173.47;;;26.68;34.70
64668;BME280;51077;42.716;23.344;2022-08-01T07:29:50;95179.13;;;26.81;34.54
64668;BME280;51077;42.716;23.344;2022-08-01T07:32:15;95181.97;;;26.95;34.28
64668;BME280;51077;42.716;23.344;2022-08-01T07:34:41;95170.22;;;27.13;34.08
64668;BME280;51077;42.716;23.344;2022-08-01T07:37:07;95178.00;;;27.28;33.90
64668;BME280;51077;42.716;23.344;2022-08-01T07:39:32;95179.34;;;27.41;33.24
64668;BME280;51077;42.716;23.344;2022-08-01T07:41:57;95180.91;;;27.58;33.15
64668;BME280;51077;42.716;23.344;2022-08-01T07:44:23;95190.69;;;27.70;32.84
64668;BME280;51077;42.716;23.344;2022-08-01T07:46:48;95184.00;;;27.77;32.29
64668;BME280;51077;42.716;23.344;2022-08-01T07:49:14;95173.81;;;27.86;32.21
64668;BME280;51077;42.716;23.344;2022-08-01T07:51:39;95178.81;;;28.01;32.17
64668;BME280;51077;42.716;23.344;2022-08-01T07:54:05;95180.19;;;28.16;32.24
64668;BME280;51077;42.716;23.344;2022-08-01T07:56:30;95176.69;;;28.31;32.07
64668;BME280;51077;42.716;23.344;2022-08-01T07:58:56;95175.19;;;28.44;32.05
64668;BME280;51077;42.716;23.344;2022-08-01T08:01:21;95180.81;;;28.60;31.81
64668;BME280;51077;42.716;23.344;2022-08-01T08:03:47;95167.97;;;28.73;31.60
64668;BME280;51077;42.716;23.344;2022-08-01T08:06:12;95178.44;;;28.86;31.47
64668;BME280;51077;42.716;23.344;2022-08-01T08:08:38;95178.94;;;28.96;31.43
64668;BME280;51077;42.716;23.344;2022-08-01T08:11:04;95179.56;;;29.11;31.19
64668;BME280;51077;42.716;23.344;2022-08-01T08:13:29;95175.81;;;29.22;30.95
64668;BME280;51077;42.716;23.344;2022-08-01T08:15:54;95190.38;;;29.32;30.75
64668;BME280;51077;42.716;23.344;2022-08-01T08:18:21;95176.66;;;29.42;30.19
64668;BME280;51077;42.716;23.344;2022-08-01T08:20:46;95172.78;;;29.51;29.86
64668;BME280;51077;42.716;23.344;2022-08-01T08:23:11;95178.66;;;29.55;29.90
64668;BME280;51077;42.716;23.344;2022-08-01T08:25:55;95183.19;;;29.63;29.31
64668;BME280;51077;42.716;23.344;2022-08-01T08:28:21;95173.75;;;29.74;29.30
64668;BME280;51077;42.716;23.344;2022-08-01T08:30:46;95177.66;;;29.83;29.17
64668;BME280;51077;42.716;23.344;2022-08-01T08:33:12;95161.91;;;29.95;28.96
64668;BME280;51077;42.716;23.344;2022-08-01T08:35:39;95167.13;;;30.03;28.90
64668;BME280;51077;42.716;23.344;2022-08-01T08:38:05;95171.19;;;30.16;28.71
64668;BME280;51077;42.716;23.344;2022-08-01T08:40:31;95172.81;;;30.21;28.26
64668;BME280;51077;42.716;23.344;2022-08-01T08:43:00;95167.97;;;30.23;28.14
64668;BME280;51077;42.716;23.344;2022-08-01T08:45:26;95160.34;;;30.28;27.82
64668;BME280;51077;42.716;23.344;2022-08-01T08:47:53;95160.72;;;30.38;27.75
64668;BME280;51077;42.716;23.344;2022-08-01T08:50:20;95153.19;;;30.45;27.33
64668;BME280;51077;42.716;23.344;2022-08-01T08:52:46;95154.16;;;30.51;27.22
64668;BME280;51077;42.716;23.344;2022-08-01T08:55:14;95162.47;;;30.65;27.04
64668;BME280;51077;42.716;23.344;2022-08-01T08:57:43;95150.13;;;30.76;26.76
64668;BME280;51077;42.716;23.344;2022-08-01T09:00:10;95135.03;;;30.90;26.68
64668;BME280;51077;42.716;23.344;2022-08-01T09:02:43;95161.03;;;31.04;26.69
64668;BME280;51077;42.716;23.344;2022-08-01T09:05:09;95158.06;;;31.20;26.55
64668;BME280;51077;42.716;23.344;2022-08-01T09:07:35;95153.41;;;31.28;26.51
64668;BME280;51077;42.716;23.344;2022-08-01T09:10:01;95146.50;;;31.34;26.57
64668;BME280;51077;42.716;23.344;2022-08-01T09:12:27;95148.94;;;31.43;26.53
64668;BME280;51077;42.716;23.344;2022-08-01T09:14:53;95151.34;;;31.51;25.93
64668;BME280;51077;42.716;23.344;2022-08-01T09:17:19;95149.00;;;31.65;26.35
64668;BME280;51077;42.716;23.344;2022-08-01T09:19:55;95148.66;;;31.77;25.73
64668;BME280;51077;42.716;23.344;2022-08-01T09:22:22;95143.41;;;31.89;25.71
64668;BME280;51077;42.716;23.344;2022-08-01T09:25:03;95135.69;;;31.92;25.39
64668;BME280;51077;42.716;23.344;2022-08-01T09:27:30;95152.22;;;31.99;25.66
64668;BME280;51077;42.716;23.344;2022-08-01T09:30:15;95135.44;;;32.08;25.64
64668;BME280;51077;42.716;23.344;2022-08-01T09:32:54;95133.00;;;32.20;24.76
64668;BME280;51077;42.716;23.344;2022-08-01T09:35:28;95146.00;;;32.27;25.16
64668;BME280;51077;42.716;23.344;2022-08-01T09:43:21;95147.47;;;32.52;24.44
64668;BME280;51077;42.716;23.344;2022-08-01T09:45:48;95152.41;;;32.75;23.91
64668;BME280;51077;42.716;23.344;2022-08-01T09:48:13;95151.66;;;32.99;23.70
64668;BME280;51077;42.716;23.344;2022-08-01T09:50:46;95146.28;;;33.09;23.58
64668;BME280;51077;42.716;23.344;2022-08-01T09:53:12;95145.09;;;32.92;24.13
64668;BME280;51077;42.716;23.344;2022-08-01T09:55:39;95153.63;;;32.92;24.08
64668;BME280;51077;42.716;23.344;2022-08-01T09:58:05;95147.00;;;32.86;24.29
64668;BME280;51077;42.716;23.344;2022-08-01T10:00:32;95144.22;;;32.62;24.71
64668;BME280;51077;42.716;23.344;2022-08-01T10:02:59;95136.88;;;32.55;24.42
64668;BME280;51077;42.716;23.344;2022-08-01T10:05:32;95144.44;;;32.46;25.22
64668;BME280;51077;42.716;23.344;2022-08-01T10:08:03;95139.47;;;32.46;25.08
64668;BME280;51077;42.716;23.344;2022-08-01T10:10:29;95134.09;;;32.33;25.15
64668;BME280;51077;42.716;23.344;2022-08-01T10:12:58;95142.81;;;32.39;25.38
64668;BME280;51077;42.716;23.344;2022-08-01T10:15:25;95136.97;;;32.57;25.05
64668;BME280;51077;42.716;23.344;2022-08-01T10:18:00;95132.13;;;32.61;25.36
64668;BME280;51077;42.716;23.344;2022-08-01T10:20:28;95132.56;;;32.29;25.71
64668;BME280;51077;42.716;23.344;2022-08-01T10:22:55;95131.13;;;32.05;25.84
64668;BME280;51077;42.716;23.344;2022-08-01T10:25:24;95128.38;;;32.09;25.77
64668;BME280;51077;42.716;23.344;2022-08-01T10:27:52;95126.41;;;32.37;25.68
64668;BME280;51077;42.716;23.344;2022-08-01T10:30:22;95118.63;;;32.62;25.40
64668;BME280;51077;42.716;23.344;2022-08-01T10:32:49;95128.63;;;32.89;24.83
64668;BME280;51077;42.716;23.344;2022-08-01T10:35:15;95114.56;;;33.21;24.25
64668;BME280;51077;42.716;23.344;2022-08-01T10:37:44;95120.66;;;33.35;23.82
64668;BME280;51077;42.716;23.344;2022-08-01T10:40:12;95113.56;;;33.64;23.83
64668;BME280;51077;42.716;23.344;2022-08-01T10:42:43;95105.00;;;33.92;23.40
64668;BME280;51077;42.716;23.344;2022-08-01T10:45:11;95099.16;;;34.16;23.01
64668;BME280;51077;42.716;23.344;2022-08-01T10:50:44;95089.31;;;34.54;22.88
64668;BME280;51077;42.716;23.344;2022-08-01T10:53:30;95093.13;;;34.66;23.00
64668;BME280;51077;42.716;23.344;2022-08-01T10:58:26;95094.28;;;34.89;21.99
64668;BME280;51077;42.716;23.344;2022-08-01T11:09:46;95094.78;;;35.98;21.17
64668;BME280;51077;42.716;23.344;2022-08-01T11:12:16;95087.84;;;36.12;21.12
64668;BME280;51077;42.716;23.344;2022-08-01T11:17:44;95091.84;;;36.43;21.08
64668;BME280;51077;42.716;23.344;2022-08-01T11:20:15;95097.16;;;36.65;20.53
64668;BME280;51077;42.716;23.344;2022-08-01T11:38:44;95086.31;;;37.16;20.67
64668;BME280;51077;42.716;23.344;2022-08-01T11:41:24;95080.41;;;36.97;20.29
64668;BME280;51077;42.716;23.344;2022-08-01T11:46:53;95069.94;;;37.24;20.82
64668;BME280;51077;42.716;23.344;2022-08-01T11:52:27;95073.31;;;37.03;20.97
64668;BME280;51077;42.716;23.344;2022-08-01T11:54:55;95071.34;;;37.21;20.68
64668;BME280;51077;42.716;23.344;2022-08-01T11:57:28;95074.38;;;37.40;20.28
64668;BME280;51077;42.716;23.344;2022-08-01T11:59:59;95064.50;;;37.53;19.90
64668;BME280;51077;42.716;23.344;2022-08-01T12:02:27;95068.16;;;37.64;19.76
64668;BME280;51077;42.716;23.344;2022-08-01T12:04:58;95063.19;;;37.68;19.74
64668;BME280;51077;42.716;23.344;2022-08-01T12:07:26;95062.56;;;37.80;20.20
64668;BME280;51077;42.716;23.344;2022-08-01T12:10:09;95056.84;;;37.80;19.87
64668;BME280;51077;42.716;23.344;2022-08-01T12:12:37;95064.69;;;37.76;19.71
64668;BME280;51077;42.716;23.344;2022-08-01T12:15:07;95059.59;;;37.70;20.25
64668;BME280;51077;42.716;23.344;2022-08-01T12:20:15;95067.69;;;37.96;19.96
64668;BME280;51077;42.716;23.344;2022-08-01T12:22:41;95068.47;;;38.05;19.52
64668;BME280;51077;42.716;23.344;2022-08-01T12:27:37;95066.28;;;37.99;19.84
64668;BME280;51077;42.716;23.344;2022-08-01T12:30:07;95061.34;;;38.06;20.04
64668;BME280;51077;42.716;23.344;2022-08-01T12:32:35;95065.44;;;37.82;20.39
64668;BME280;51077;42.716;23.344;2022-08-01T12:37:27;95060.41;;;37.81;20.20
64668;BME280;51077;42.716;23.344;2022-08-01T12:39:53;95058.94;;;37.73;19.79
64668;BME280;51077;42.716;23.344;2022-08-01T12:42:18;95061.03;;;37.67;20.42
64668;BME280;51077;42.716;23.344;2022-08-01T12:44:48;95065.34;;;37.70;20.46
64668;BME280;51077;42.716;23.344;2022-08-01T12:47:15;95064.63;;;37.69;19.99
64668;BME280;51077;42.716;23.344;2022-08-01T12:49:43;95062.22;;;37.39;20.11
64668;BME280;51077;42.716;23.344;2022-08-01T12:52:09;95059.13;;;37.15;20.77
64668;BME280;51077;42.716;23.344;2022-08-01T12:55:01;95052.69;;;37.14;21.16
64668;BME280;51077;42.716;23.344;2022-08-01T12:57:27;95044.38;;;36.76;21.36
64668;BME280;51077;42.716;23.344;2022-08-01T12:59:53;95049.97;;;36.66;21.54
64668;BME280;51077;42.716;23.344;2022-08-01T13:02:18;95042.00;;;36.56;21.30
64668;BME280;51077;42.716;23.344;2022-08-01T13:04:50;95037.03;;;36.59;21.11
64668;BME280;51077;42.716;23.344;2022-08-01T13:07:16;95036.41;;;36.66;21.30
64668;BME280;51077;42.716;23.344;2022-08-01T13:09:50;95040.81;;;36.78;20.92
64668;BME280;51077;42.716;23.344;2022-08-01T13:12:15;95030.75;;;36.74;21.42
64668;BME280;51077;42.716;23.344;2022-08-01T13:14:40;95040.16;;;36.83;21.26
64668;BME280;51077;42.716;23.344;2022-08-01T13:17:06;95035.19;;;36.86;21.47
64668;BME280;51077;42.716;23.344;2022-08-01T13:19:44;95028.72;;;36.83;21.11
64668;BME280;51077;42.716;23.344;2022-08-01T13:22:10;95029.31;;;36.71;21.37
64668;BME280;51077;42.716;23.344;2022-08-01T13:24:35;95042.66;;;36.48;21.78
64668;BME280;51077;42.716;23.344;2022-08-01T13:27:02;95025.00;;;36.12;21.95
64668;BME280;51077;42.716;23.344;2022-08-01T13:29:39;95028.75;;;35.78;22.50
64668;BME280;51077;42.716;23.344;2022-08-01T13:32:18;95036.03;;;35.43;22.67
64668;BME280;51077;42.716;23.344;2022-08-01T13:34:44;95028.41;;;35.13;23.18
64668;BME280;51077;42.716;23.344;2022-08-01T13:37:09;95030.09;;;34.88;23.53
64668;BME280;51077;42.716;23.344;2022-08-01T13:39:35;95031.75;;;34.63;23.71
64668;BME280;51077;42.716;23.344;2022-08-01T13:42:12;95019.81;;;34.37;24.74
64668;BME280;51077;42.716;23.344;2022-08-01T13:44:37;95017.25;;;34.17;24.61
64668;BME280;51077;42.716;23.344;2022-08-01T13:47:03;95019.72;;;33.98;24.76
64668;BME280;51077;42.716;23.344;2022-08-01T13:49:29;95012.19;;;33.81;24.93
64668;BME280;51077;42.716;23.344;2022-08-01T13:51:54;95019.00;;;33.66;25.17
64668;BME280;51077;42.716;23.344;2022-08-01T13:54:20;94992.31;;;33.51;25.57
64668;BME280;51077;42.716;23.344;2022-08-01T13:56:45;95014.75;;;33.39;25.55
64668;BME280;51077;42.716;23.344;2022-08-01T13:59:11;95015.13;;;33.25;25.87
64668;BME280;51077;42.716;23.344;2022-08-01T14:01:37;95011.31;;;33.14;25.71
64668;BME280;51077;42.716;23.344;2022-08-01T14:04:02;95015.31;;;33.03;25.95
64668;BME280;51077;42.716;23.344;2022-08-01T14:06:28;95014.94;;;32.91;25.82
64668;BME280;51077;42.716;23.344;2022-08-01T14:08:54;95018.97;;;32.82;25.98
64668;BME280;51077;42.716;23.344;2022-08-01T14:11:19;95009.47;;;32.71;26.43
64668;BME280;51077;42.716;23.344;2022-08-01T14:13:45;95011.31;;;32.60;26.73
64668;BME280;51077;42.716;23.344;2022-08-01T14:16:10;95010.38;;;32.51;26.51
64668;BME280;51077;42.716;23.344;2022-08-01T14:18:36;95014.38;;;32.42;26.94
64668;BME280;51077;42.716;23.344;2022-08-01T14:21:02;95001.28;;;32.31;26.80
64668;BME280;51077;42.716;23.344;2022-08-01T14:23:28;95003.88;;;32.23;26.72
64668;BME280;51077;42.716;23.344;2022-08-01T14:25:53;95007.88;;;32.14;27.04
64668;BME280;51077;42.716;23.344;2022-08-01T14:28:19;95006.91;;;32.05;27.23
64668;BME280;51077;42.716;23.344;2022-08-01T14:30:44;95013.00;;;31.95;27.27
64668;BME280;51077;42.716;23.344;2022-08-01T14:33:11;95008.47;;;31.86;27.19
64668;BME280;51077;42.716;23.344;2022-08-01T14:35:37;95012.44;;;31.77;27.01
64668;BME280;51077;42.716;23.344;2022-08-01T14:38:03;95012.25;;;31.71;27.76